createdAt,value
2018-09-04T00:00:48.976Z,34.97
2018-09-04T00:05:53.025Z,37.33
2018-09-04T00:10:57.046Z,37.80
2018-09-04T00:16:05.260Z,32.70
2018-09-04T00:21:09.320Z,34.40
2018-09-04T00:26:13.370Z,33.87
2018-09-04T00:31:17.462Z,37.87
2018-09-04T00:36:21.262Z,36.40
2018-09-04T00:41:25.401Z,34.43
2018-09-04T00:46:29.242Z,40.23
2018-09-04T00:51:33.345Z,41.03
2018-09-04T00:56:37.406Z,43.87
2018-09-04T01:01:41.989Z,39.73
2018-09-04T01:06:46.042Z,46.07
2018-09-04T01:11:50.050Z,46.77
2018-09-04T01:16:54.146Z,46.27
2018-09-04T01:21:58.177Z,48.93
2018-09-04T01:27:01.981Z,48.13
2018-09-04T01:32:07.333Z,44.50
2018-09-04T01:37:11.125Z,45.17
2018-09-04T01:42:15.229Z,46.03
2018-09-04T01:47:19.026Z,42.75
2018-09-04T01:52:23.066Z,42.37
2018-09-04T01:57:27.107Z,47.00
2018-09-04T02:02:32.038Z,51.67
2018-09-04T02:07:36.073Z,46.63
2018-09-04T02:12:40.125Z,41.53
2018-09-04T02:17:44.236Z,43.80
2018-09-04T02:22:48.104Z,43.50
2018-09-04T02:27:51.914Z,40.45
2018-09-04T02:32:56.018Z,43.67
2018-09-04T02:38:00.073Z,44.27
2018-09-04T02:43:04.195Z,44.20
2018-09-04T02:48:08.246Z,57.47
2018-09-04T02:53:12.298Z,61.73
2018-09-04T02:58:16.389Z,60.93
2018-09-04T03:03:20.453Z,56.33
2018-09-04T03:08:24.659Z,55.63
2018-09-04T03:13:28.778Z,57.30
2018-09-04T03:18:32.538Z,57.63
2018-09-04T03:23:36.617Z,52.77
2018-09-04T03:28:40.461Z,50.20
2018-09-04T03:33:44.538Z,47.07
2018-09-04T03:38:48.612Z,49.53
2018-09-04T03:43:52.490Z,50.37
2018-09-04T03:48:56.310Z,53.53
2018-09-04T03:54:00.383Z,53.33
2018-09-04T03:59:04.480Z,50.63
2018-09-04T04:04:08.331Z,49.93
2018-09-04T04:09:12.384Z,44.93
2018-09-04T04:14:16.471Z,46.83
2018-09-04T04:19:20.376Z,46.20
2018-09-04T04:24:24.494Z,48.17
2018-09-04T04:29:28.882Z,49.67
2018-09-04T04:34:33.702Z,48.43
2018-09-04T04:39:37.530Z,46.23
2018-09-04T04:44:41.734Z,48.07
2018-09-04T04:49:45.566Z,54.87
2018-09-04T04:54:49.400Z,51.20
2018-09-04T04:59:53.873Z,53.33
2018-09-04T05:04:58.047Z,59.00
2018-09-04T05:10:02.422Z,62.73
2018-09-04T05:15:06.414Z,69.50
2018-09-04T05:20:11.864Z,71.70
2018-09-04T05:25:16.055Z,69.33
2018-09-04T05:30:20.162Z,68.23
2018-09-04T05:35:24.355Z,64.80
2018-09-04T05:40:28.450Z,63.97
2018-09-04T05:45:34.034Z,58.10
2018-09-04T05:50:38.198Z,52.63
2018-09-04T05:55:42.121Z,51.60
2018-09-04T06:00:50.057Z,46.83
2018-09-04T06:05:53.972Z,40.40
2018-09-04T06:10:57.831Z,43.53
2018-09-04T06:16:01.998Z,43.83
2018-09-04T06:21:05.839Z,40.43
2018-09-04T06:26:10.033Z,40.30
2018-09-04T06:31:14.144Z,37.40
2018-09-04T06:36:18.267Z,34.63
2018-09-04T06:41:22.351Z,38.87
2018-09-04T06:46:26.473Z,33.17
2018-09-04T06:51:30.742Z,28.13
2018-09-04T06:56:34.862Z,18.83
2018-09-04T07:01:39.043Z,16.23
2018-09-04T07:06:43.038Z,17.23
2018-09-04T07:11:47.165Z,17.87
2018-09-04T07:16:51.027Z,17.40
2018-09-04T07:21:54.821Z,17.30
2018-09-04T07:26:58.666Z,19.00
2018-09-04T07:32:02.743Z,18.73
2018-09-04T07:37:07.176Z,15.80
2018-09-04T07:42:11.528Z,17.27
2018-09-04T07:47:15.625Z,17.50
2018-09-04T07:52:19.446Z,18.30
2018-09-04T07:57:23.270Z,18.53
2018-09-04T08:02:27.107Z,22.87
2018-09-04T08:07:30.978Z,23.10
2018-09-04T08:12:34.906Z,24.13
2018-09-04T08:17:38.982Z,26.30
2018-09-04T08:22:43.067Z,29.60
2018-09-04T08:27:47.162Z,31.87
2018-09-04T08:32:51.056Z,28.43
2018-09-04T08:38:01.178Z,26.13
2018-09-04T08:43:05.251Z,26.80
2018-09-04T08:48:14.389Z,25.13
2018-09-04T08:53:18.689Z,25.00
2018-09-04T08:58:29.458Z,24.40
2018-09-04T09:03:33.259Z,24.43
2018-09-04T09:08:37.125Z,24.40
2018-09-04T09:13:40.964Z,24.37
2018-09-04T09:18:45.099Z,24.87
2018-09-04T09:23:49.196Z,21.23
2018-09-04T09:28:53.392Z,23.27
2018-09-04T09:33:57.483Z,20.83
2018-09-04T09:39:01.595Z,20.97
2018-09-04T09:44:05.779Z,19.93
2018-09-04T09:49:10.269Z,20.35
2018-09-04T09:54:14.565Z,19.33
2018-09-04T09:59:18.421Z,19.23
2018-09-04T10:04:22.491Z,15.17
2018-09-04T10:09:26.338Z,15.70
2018-09-04T10:14:30.478Z,15.77
2018-09-04T10:19:34.862Z,16.37
2018-09-04T10:24:38.979Z,13.87
2018-09-04T10:29:42.816Z,13.43
2018-09-04T10:34:46.695Z,13.77
2018-09-04T10:39:56.242Z,12.90
2018-09-04T10:45:00.185Z,10.73
2018-09-04T10:50:04.299Z,12.23
2018-09-04T10:55:08.767Z,10.80
2018-09-04T11:00:14.065Z,10.90
2018-09-04T11:05:18.145Z,11.43
2018-09-04T11:10:22.271Z,10.13
2018-09-04T11:15:26.399Z,10.90
2018-09-04T11:20:30.497Z,10.07
2018-09-04T11:25:34.590Z,10.03
2018-09-04T11:30:39.460Z,9.13
2018-09-04T11:35:43.314Z,9.90
2018-09-04T11:40:47.372Z,9.07
2018-09-04T11:45:51.453Z,9.00
2018-09-04T11:50:55.417Z,9.30
2018-09-04T11:55:59.300Z,9.43
2018-09-04T12:01:05.005Z,9.33
2018-09-04T12:06:08.895Z,9.10
2018-09-04T12:11:13.007Z,9.43
2018-09-04T12:16:17.918Z,9.43
2018-09-04T12:21:22.554Z,8.90
2018-09-04T12:26:26.305Z,8.27
2018-09-04T12:31:30.178Z,8.77
2018-09-04T12:36:34.327Z,8.60
2018-09-04T12:41:38.405Z,8.73
2018-09-04T12:46:42.493Z,8.70
2018-09-04T12:51:46.588Z,8.50
2018-09-04T12:56:50.452Z,9.83
2018-09-04T13:02:01.349Z,8.83
2018-09-04T13:07:05.519Z,9.20
2018-09-04T13:12:09.691Z,9.63
2018-09-04T13:24:37.575Z,9.80
2018-09-04T13:29:41.679Z,9.10
2018-09-04T13:34:46.750Z,9.67
2018-09-04T13:39:55.667Z,10.63
2018-09-04T13:44:59.786Z,9.50
2018-09-04T13:50:03.642Z,9.77
2018-09-04T13:55:08.015Z,9.47
2018-09-04T14:00:13.378Z,10.07
2018-09-04T14:05:17.534Z,9.70
2018-09-04T14:10:21.675Z,10.17
2018-09-04T14:15:25.511Z,9.37
2018-09-04T14:20:29.356Z,9.73
2018-09-04T14:25:33.339Z,10.00
2018-09-04T14:30:37.482Z,9.33
2018-09-04T14:35:41.255Z,9.70
2018-09-04T14:40:45.197Z,10.50
2018-09-04T14:45:49.319Z,10.50
2018-09-04T14:50:53.719Z,10.47
2018-09-04T14:55:57.811Z,10.93
2018-09-04T15:01:01.970Z,11.33
2018-09-04T15:06:06.192Z,11.57
2018-09-04T15:11:10.019Z,12.00
2018-09-04T15:16:13.838Z,12.00
2018-09-04T15:21:18.053Z,11.77
2018-09-04T15:26:21.972Z,12.30
2018-09-04T15:31:26.059Z,12.90
2018-09-04T15:36:30.236Z,12.80
2018-09-04T15:41:34.347Z,12.87
2018-09-04T15:46:38.286Z,12.23
2018-09-04T15:51:42.459Z,14.57
2018-09-04T15:56:46.389Z,12.10
2018-09-04T16:01:50.437Z,12.07
2018-09-04T16:06:54.245Z,12.07
2018-09-04T16:11:58.394Z,12.57
2018-09-04T16:17:02.462Z,12.73
2018-09-04T16:22:06.315Z,13.17
2018-09-04T16:27:11.111Z,14.90
2018-09-04T16:32:15.062Z,16.05
2018-09-04T16:37:19.193Z,13.97
2018-09-04T16:42:23.278Z,14.23
2018-09-04T16:47:27.457Z,13.40
2018-09-04T16:52:31.739Z,14.77
2018-09-04T16:57:35.892Z,13.37
2018-09-04T17:02:39.759Z,12.20
2018-09-04T17:07:44.280Z,12.30
2018-09-04T17:12:48.188Z,12.00
2018-09-04T17:17:52.253Z,12.70
2018-09-04T17:22:56.112Z,11.53
2018-09-04T17:28:00.364Z,12.43
2018-09-04T17:33:04.518Z,14.97
2018-09-04T17:38:08.505Z,15.53
2018-09-04T17:43:12.583Z,15.17
2018-09-04T17:48:17.560Z,16.13
2018-09-04T17:53:21.544Z,15.87
2018-09-04T17:58:25.410Z,15.80
2018-09-04T18:03:29.651Z,16.37
2018-09-04T18:08:33.785Z,16.03
2018-09-04T18:13:38.583Z,15.20
2018-09-04T18:18:42.684Z,15.97
2018-09-04T18:23:46.849Z,15.10
2018-09-04T18:28:50.705Z,16.20
2018-09-04T18:33:54.578Z,17.13
2018-09-04T18:38:58.465Z,15.60
2018-09-04T18:44:02.602Z,16.90
2018-09-04T18:49:06.584Z,20.00
2018-09-04T18:54:10.467Z,17.30
2018-09-04T18:59:14.575Z,18.80
2018-09-04T19:04:18.420Z,16.90
2018-09-04T19:09:22.555Z,17.80
2018-09-04T19:14:27.037Z,16.73
2018-09-04T19:19:31.236Z,17.33
2018-09-04T19:24:35.310Z,17.07
2018-09-04T19:29:39.425Z,17.23
2018-09-04T19:34:43.650Z,16.77
2018-09-04T19:39:47.716Z,16.60
2018-09-04T19:44:51.645Z,16.97
2018-09-04T19:49:55.531Z,17.00
2018-09-04T19:54:59.699Z,16.27
2018-09-04T20:00:03.800Z,17.40
2018-09-04T20:05:08.291Z,16.40
2018-09-04T20:10:12.356Z,17.27
2018-09-04T20:15:16.428Z,17.30
2018-09-04T20:20:20.485Z,16.57
2018-09-04T20:25:24.615Z,17.13
2018-09-04T20:30:28.699Z,18.50
2018-09-04T20:35:32.851Z,17.70
2018-09-04T20:40:37.001Z,17.70
2018-09-04T20:45:41.187Z,17.23
2018-09-04T20:50:45.062Z,17.10
2018-09-04T20:55:49.196Z,18.43
2018-09-04T21:01:04.366Z,18.23
2018-09-04T21:06:19.449Z,17.87
2018-09-04T21:11:23.627Z,17.53
2018-09-04T21:16:27.718Z,18.23
2018-09-04T21:21:31.822Z,17.47
2018-09-04T21:26:35.896Z,18.30
2018-09-04T21:31:39.717Z,17.87
2018-09-04T21:36:43.792Z,18.97
2018-09-04T21:41:48.076Z,18.77
2018-09-04T21:46:52.143Z,17.67
2018-09-04T21:51:56.216Z,19.13
2018-09-04T21:57:00.103Z,18.33
2018-09-04T22:02:04.166Z,18.57
2018-09-04T22:07:08.965Z,19.00
2018-09-04T22:12:13.087Z,18.27
2018-09-04T22:17:17.487Z,18.73
2018-09-04T22:22:21.618Z,18.70
2018-09-04T22:27:25.697Z,19.70
2018-09-04T22:32:29.806Z,18.97
2018-09-04T22:37:33.907Z,17.83
2018-09-04T22:42:37.958Z,19.07
2018-09-04T22:47:42.306Z,18.90
2018-09-04T22:52:46.379Z,18.97
2018-09-04T22:57:50.483Z,19.27
2018-09-04T23:02:54.314Z,18.03
2018-09-04T23:07:58.404Z,17.93
2018-09-04T23:13:02.233Z,18.10
2018-09-04T23:18:06.133Z,20.53
2018-09-04T23:23:10.101Z,17.83
2018-09-04T23:28:14.182Z,18.47
2018-09-04T23:33:18.271Z,17.77
2018-09-04T23:38:23.822Z,18.70
2018-09-04T23:43:27.899Z,18.83
2018-09-04T23:48:32.039Z,17.50
2018-09-04T23:53:36.182Z,19.20
2018-09-04T23:58:40.015Z,19.17
